createdAt,value
2018-06-11T00:01:01.646Z,983.96
2018-06-11T00:02:08.439Z,983.93
2018-06-11T00:03:15.142Z,983.98
2018-06-11T00:04:21.926Z,983.91
2018-06-11T00:05:29.139Z,983.98
2018-06-11T00:06:35.579Z,983.96
2018-06-11T00:07:42.592Z,983.93
2018-06-11T00:08:49.510Z,983.92
2018-06-11T00:09:56.201Z,983.93
2018-06-11T00:11:03.450Z,983.96
2018-06-11T00:12:10.181Z,983.92
2018-06-11T00:13:16.862Z,983.90
2018-06-11T00:14:23.610Z,983.99
2018-06-11T00:15:30.294Z,983.94
2018-06-11T00:16:37.134Z,984.01
2018-06-11T00:17:44.002Z,983.98
2018-06-11T00:18:50.770Z,983.88
2018-06-11T00:19:57.542Z,983.94
2018-06-11T00:21:04.217Z,983.89
2018-06-11T00:22:11.040Z,983.91
2018-06-11T00:23:17.827Z,983.85
2018-06-11T00:24:24.563Z,983.86
2018-06-11T00:25:31.289Z,983.93
2018-06-11T00:26:38.148Z,983.91
2018-06-11T00:27:44.830Z,983.94
2018-06-11T00:28:51.623Z,983.89
2018-06-11T00:29:58.302Z,983.94
2018-06-11T00:31:05.014Z,983.94
2018-06-11T00:32:11.870Z,983.92
2018-06-11T00:33:18.580Z,983.95
2018-06-11T00:34:25.433Z,983.93
2018-06-11T00:35:32.151Z,983.89
2018-06-11T00:36:38.956Z,983.86
2018-06-11T00:37:45.782Z,983.87
2018-06-11T00:38:52.426Z,983.86
2018-06-11T00:39:59.721Z,983.75
2018-06-11T00:41:06.632Z,983.78
2018-06-11T00:42:13.457Z,983.69
2018-06-11T00:43:20.275Z,983.72
2018-06-11T00:44:26.991Z,983.72
2018-06-11T00:45:33.782Z,983.67
2018-06-11T00:46:40.502Z,983.73
2018-06-11T00:47:47.251Z,983.68
2018-06-11T00:48:53.970Z,983.70
2018-06-11T00:50:00.687Z,983.77
2018-06-11T00:51:07.538Z,983.76
2018-06-11T00:52:14.284Z,983.72
2018-06-11T00:53:21.116Z,983.76
2018-06-11T00:54:28.146Z,983.80
2018-06-11T00:55:34.999Z,983.72
2018-06-11T00:56:41.933Z,983.70
2018-06-11T00:57:48.721Z,983.69
2018-06-11T00:58:55.441Z,983.65
2018-06-11T01:00:02.514Z,983.60
2018-06-11T01:01:09.444Z,983.62
2018-06-11T01:02:16.155Z,983.57
2018-06-11T01:03:22.855Z,983.53
2018-06-11T01:04:29.604Z,983.55
2018-06-11T01:05:36.342Z,983.57
2018-06-11T01:06:43.162Z,983.54
2018-06-11T01:07:49.870Z,983.60
2018-06-11T01:08:57.125Z,983.51
2018-06-11T01:10:03.874Z,983.47
2018-06-11T01:11:10.614Z,983.52
2018-06-11T01:12:17.296Z,983.48
2018-06-11T01:13:24.027Z,983.46
2018-06-11T01:14:30.784Z,983.50
2018-06-11T01:15:37.536Z,983.43
2018-06-11T01:16:44.341Z,983.46
2018-06-11T01:17:51.166Z,983.42
2018-06-11T01:18:57.882Z,983.40
2018-06-11T01:20:04.582Z,983.37
2018-06-11T01:21:11.345Z,983.38
2018-06-11T01:22:18.215Z,983.24
2018-06-11T01:23:25.116Z,983.31
2018-06-11T01:24:31.789Z,983.34
2018-06-11T01:25:38.527Z,983.26
2018-06-11T01:26:45.271Z,983.26
2018-06-11T01:27:52.090Z,983.29
2018-06-11T01:28:58.934Z,983.33
2018-06-11T01:30:05.661Z,983.29
2018-06-11T01:31:12.434Z,983.27
2018-06-11T01:32:19.194Z,983.30
2018-06-11T01:33:25.919Z,983.30
2018-06-11T01:34:32.689Z,983.30
2018-06-11T01:35:39.407Z,983.33
2018-06-11T01:36:46.110Z,983.28
2018-06-11T01:37:52.818Z,983.23
2018-06-11T01:39:00.262Z,983.24
2018-06-11T01:40:06.898Z,983.37
2018-06-11T01:41:13.665Z,983.21
2018-06-11T01:42:20.586Z,983.22
2018-06-11T01:43:27.303Z,983.21
2018-06-11T01:44:33.926Z,983.19
2018-06-11T01:45:41.199Z,983.25
2018-06-11T01:46:48.053Z,983.32
2018-06-11T01:47:54.907Z,983.21
2018-06-11T01:49:01.694Z,983.30
2018-06-11T01:50:08.378Z,983.21
2018-06-11T01:51:15.670Z,983.22
2018-06-11T01:52:22.481Z,983.17
2018-06-11T01:53:29.465Z,983.18
2018-06-11T01:54:36.123Z,983.14
2018-06-11T01:55:42.973Z,983.12
2018-06-11T01:56:49.706Z,983.22
2018-06-11T01:57:56.430Z,983.19
2018-06-11T01:59:03.174Z,983.12
2018-06-11T02:00:09.879Z,983.02
2018-06-11T02:01:16.845Z,983.06
2018-06-11T02:02:23.541Z,983.07
2018-06-11T02:03:30.329Z,983.09
2018-06-11T02:04:36.994Z,983.03
2018-06-11T02:05:43.714Z,982.99
2018-06-11T02:06:50.350Z,982.91
2018-06-11T02:07:57.486Z,982.88
2018-06-11T02:09:04.606Z,982.90
2018-06-11T02:10:11.566Z,982.87
2018-06-11T02:11:18.376Z,982.83
2018-06-11T02:12:25.082Z,982.88
2018-06-11T02:13:31.908Z,982.79
2018-06-11T02:14:38.559Z,982.78
2018-06-11T02:15:45.798Z,982.80
2018-06-11T02:16:52.533Z,982.74
2018-06-11T02:17:59.286Z,982.66
2018-06-11T02:19:06.163Z,982.69
2018-06-11T02:20:12.698Z,982.65
2018-06-11T02:21:19.490Z,982.64
2018-06-11T02:22:26.213Z,982.67
2018-06-11T02:23:32.994Z,982.59
2018-06-11T02:24:39.744Z,982.56
2018-06-11T02:25:46.479Z,982.57
2018-06-11T02:26:53.194Z,982.53
2018-06-11T02:27:59.946Z,982.50
2018-06-11T02:29:06.727Z,982.52
2018-06-11T02:30:13.488Z,982.53
2018-06-11T02:31:20.266Z,982.58
2018-06-11T02:32:27.130Z,982.54
2018-06-11T02:33:34.033Z,982.58
2018-06-11T02:34:40.745Z,982.60
2018-06-11T02:35:47.486Z,982.59
2018-06-11T02:36:54.220Z,982.63
2018-06-11T02:38:01.015Z,982.61
2018-06-11T02:39:07.770Z,982.52
2018-06-11T02:40:14.484Z,982.55
2018-06-11T02:41:21.186Z,982.62
2018-06-11T02:42:28.038Z,982.59
2018-06-11T02:43:34.755Z,982.57
2018-06-11T02:44:41.470Z,982.59
2018-06-11T02:45:48.209Z,982.55
2018-06-11T02:46:54.947Z,982.60
2018-06-11T02:48:01.670Z,982.51
2018-06-11T02:49:08.598Z,982.57
2018-06-11T02:50:15.328Z,982.51
2018-06-11T02:51:22.066Z,982.60
2018-06-11T02:52:28.934Z,982.59
2018-06-11T02:53:35.608Z,982.64
2018-06-11T02:54:42.328Z,982.66
2018-06-11T02:55:49.098Z,982.67
2018-06-11T02:56:55.835Z,982.72
2018-06-11T02:58:02.554Z,982.72
2018-06-11T02:59:09.380Z,982.66
2018-06-11T03:00:16.098Z,982.74
2018-06-11T03:01:22.806Z,982.67
2018-06-11T03:02:29.707Z,982.74
2018-06-11T03:03:36.389Z,982.73
2018-06-11T03:04:43.348Z,982.68
2018-06-11T03:05:50.107Z,982.75
2018-06-11T03:06:56.963Z,982.69
2018-06-11T03:08:03.682Z,982.77
2018-06-11T03:09:10.409Z,982.77
2018-06-11T03:10:17.383Z,982.80
2018-06-11T03:11:24.046Z,982.78
2018-06-11T03:12:31.274Z,982.77
2018-06-11T03:13:38.226Z,982.86
2018-06-11T03:14:44.944Z,982.86
2018-06-11T03:15:51.671Z,982.81
2018-06-11T03:16:58.391Z,982.85
2018-06-11T03:18:05.442Z,982.84
2018-06-11T03:19:12.136Z,982.82
2018-06-11T03:20:18.888Z,982.83
2018-06-11T03:21:25.811Z,982.90
2018-06-11T03:22:32.754Z,982.85
2018-06-11T03:23:39.515Z,982.84
2018-06-11T03:24:46.146Z,982.86
2018-06-11T03:25:52.924Z,982.86
2018-06-11T03:26:59.591Z,982.80
2018-06-11T03:28:06.440Z,982.77
2018-06-11T03:29:13.359Z,982.78
2018-06-11T03:30:20.587Z,982.80
2018-06-11T03:31:27.224Z,982.79
2018-06-11T03:32:34.051Z,982.77
2018-06-11T03:33:41.322Z,982.78
2018-06-11T03:34:48.206Z,982.80
2018-06-11T03:35:54.986Z,982.84
2018-06-11T03:37:02.133Z,982.77
2018-06-11T03:38:09.489Z,982.77
2018-06-11T03:39:15.753Z,982.74
2018-06-11T03:40:22.524Z,982.78
2018-06-11T03:41:29.369Z,982.74
2018-06-11T03:42:36.357Z,982.67
2018-06-11T03:43:43.046Z,982.70
2018-06-11T03:44:49.794Z,982.76
2018-06-11T03:45:56.492Z,982.68
2018-06-11T03:47:03.727Z,982.69
2018-06-11T03:48:10.707Z,982.64
2018-06-11T03:49:17.495Z,982.67
2018-06-11T03:50:24.339Z,982.63
2018-06-11T03:51:31.131Z,982.59
2018-06-11T03:52:38.083Z,982.71
2018-06-11T03:53:44.718Z,982.66
2018-06-11T03:54:51.870Z,982.69
2018-06-11T03:55:59.115Z,982.58
2018-06-11T03:57:05.849Z,982.67
2018-06-11T03:58:12.590Z,982.68
2018-06-11T03:59:19.279Z,982.62
2018-06-11T04:00:25.968Z,982.66
2018-06-11T04:01:32.657Z,982.66
2018-06-11T04:02:39.411Z,982.65
2018-06-11T04:03:46.131Z,982.66
2018-06-11T04:04:52.850Z,982.61
2018-06-11T04:05:59.590Z,982.66
2018-06-11T04:07:06.312Z,982.70
2018-06-11T04:08:13.081Z,982.68
2018-06-11T04:09:19.855Z,982.71
2018-06-11T04:10:26.522Z,982.75
2018-06-11T04:11:33.654Z,982.75
2018-06-11T04:12:41.198Z,982.69
2018-06-11T04:13:47.949Z,982.63
2018-06-11T04:14:54.673Z,982.67
2018-06-11T04:16:01.457Z,982.65
2018-06-11T04:17:08.334Z,982.63
2018-06-11T04:18:15.041Z,982.64
2018-06-11T04:19:21.804Z,982.57
2018-06-11T04:20:28.664Z,982.58
2018-06-11T04:21:35.381Z,982.49
2018-06-11T04:22:42.191Z,982.53
2018-06-11T04:23:48.947Z,982.47
2018-06-11T04:24:55.658Z,982.52
2018-06-11T04:26:02.415Z,982.48
2018-06-11T04:27:09.263Z,982.46
2018-06-11T04:28:16.012Z,982.58
2018-06-11T04:29:22.755Z,982.56
2018-06-11T04:30:29.485Z,982.64
2018-06-11T04:31:36.310Z,982.59
2018-06-11T04:32:43.070Z,982.57
2018-06-11T04:33:49.772Z,982.51
2018-06-11T04:34:56.511Z,982.58
2018-06-11T04:36:03.248Z,982.64
2018-06-11T04:37:09.953Z,982.62
2018-06-11T04:38:16.775Z,982.66
2018-06-11T04:39:23.590Z,982.70
2018-06-11T04:40:30.273Z,982.69
2018-06-11T04:41:36.898Z,982.76
2018-06-11T04:42:44.066Z,982.80
2018-06-11T04:43:51.297Z,982.80
2018-06-11T04:44:57.926Z,982.86
2018-06-11T04:46:05.186Z,982.84
2018-06-11T04:47:11.947Z,982.82
2018-06-11T04:48:18.642Z,982.90
2018-06-11T04:49:25.443Z,982.83
2018-06-11T04:50:32.162Z,982.82
2018-06-11T04:51:39.287Z,982.78
2018-06-11T04:52:46.014Z,982.81
2018-06-11T04:53:52.726Z,982.85
2018-06-11T04:54:59.502Z,982.79
2018-06-11T04:56:06.188Z,982.74
2018-06-11T04:57:12.803Z,982.77
2018-06-11T04:58:20.077Z,982.72
2018-06-11T04:59:26.817Z,982.82
2018-06-11T05:00:33.531Z,982.74
2018-06-11T05:01:40.194Z,982.78
2018-06-11T05:02:46.894Z,982.77
2018-06-11T05:03:53.635Z,982.82
2018-06-11T05:05:00.388Z,982.82
2018-06-11T05:06:07.338Z,982.86
2018-06-11T05:07:14.040Z,982.87
2018-06-11T05:08:20.870Z,982.85
2018-06-11T05:09:27.638Z,982.85
2018-06-11T05:10:34.442Z,982.84
2018-06-11T05:11:41.769Z,982.78
2018-06-11T05:12:48.490Z,982.74
2018-06-11T05:13:55.459Z,982.81
2018-06-11T05:15:02.572Z,982.78
2018-06-11T05:16:09.318Z,982.75
2018-06-11T05:17:16.128Z,982.77
2018-06-11T05:18:22.943Z,982.67
2018-06-11T05:19:29.767Z,982.72
2018-06-11T05:20:36.616Z,982.68
2018-06-11T05:21:43.342Z,982.76
2018-06-11T05:22:50.136Z,982.77
2018-06-11T05:23:56.887Z,982.70
2018-06-11T05:25:03.641Z,982.72
2018-06-11T05:26:10.478Z,982.74
2018-06-11T05:27:17.151Z,982.67
2018-06-11T05:28:23.970Z,982.74
2018-06-11T05:29:30.973Z,982.65
2018-06-11T05:30:37.633Z,982.69
2018-06-11T05:31:44.334Z,982.64
2018-06-11T05:32:51.126Z,982.67
2018-06-11T05:33:57.829Z,982.67
2018-06-11T05:35:04.536Z,982.73
2018-06-11T05:36:11.348Z,982.70
2018-06-11T05:37:18.019Z,982.72
2018-06-11T05:38:25.218Z,982.64
2018-06-11T05:39:31.970Z,982.61
2018-06-11T05:40:38.686Z,982.66
2018-06-11T05:41:45.380Z,982.67
2018-06-11T05:42:52.114Z,982.63
2018-06-11T05:43:58.854Z,982.67
2018-06-11T05:45:05.570Z,982.74
2018-06-11T05:46:12.403Z,982.63
2018-06-11T05:47:19.106Z,982.65
2018-06-11T05:48:25.858Z,982.62
2018-06-11T05:49:32.703Z,982.68
2018-06-11T05:50:39.397Z,982.66
2018-06-11T05:51:46.117Z,982.57
2018-06-11T05:52:53.358Z,982.74
2018-06-11T05:53:59.622Z,982.70
2018-06-11T05:55:06.410Z,982.68
2018-06-11T05:56:13.144Z,982.73
2018-06-11T05:57:19.848Z,982.74
2018-06-11T05:58:26.618Z,982.70
2018-06-11T05:59:33.358Z,982.71
2018-06-11T06:00:40.075Z,982.77
2018-06-11T06:01:46.839Z,982.72
2018-06-11T06:02:53.627Z,982.76
2018-06-11T06:04:01.147Z,982.70
2018-06-11T06:05:07.579Z,982.74
2018-06-11T06:06:14.406Z,982.71
2018-06-11T06:07:21.134Z,982.69
2018-06-11T06:08:27.911Z,982.71
2018-06-11T06:09:34.571Z,982.73
2018-06-11T06:10:41.306Z,982.71
2018-06-11T06:11:48.032Z,982.76
2018-06-11T06:12:54.754Z,982.70
2018-06-11T06:14:01.573Z,982.78
2018-06-11T06:15:08.522Z,982.75
2018-06-11T06:16:15.493Z,982.67
2018-06-11T06:17:22.155Z,982.66
2018-06-11T06:18:29.442Z,982.68
2018-06-11T06:19:36.301Z,982.60
2018-06-11T06:20:42.957Z,982.63
2018-06-11T06:21:49.674Z,982.53
2018-06-11T06:22:56.421Z,982.56
2018-06-11T06:24:03.156Z,982.60
2018-06-11T06:25:10.088Z,982.57
2018-06-11T06:26:16.921Z,982.58
2018-06-11T06:27:23.607Z,982.59
2018-06-11T06:28:30.454Z,982.58
2018-06-11T06:29:37.194Z,982.63
2018-06-11T06:30:43.887Z,982.59
2018-06-11T06:31:50.538Z,982.63
2018-06-11T06:32:57.743Z,982.60
2018-06-11T06:34:04.594Z,982.57
2018-06-11T06:35:11.451Z,982.48
2018-06-11T06:36:18.270Z,982.51
2018-06-11T06:37:25.254Z,982.56
2018-06-11T06:38:31.987Z,982.46
2018-06-11T06:39:38.757Z,982.51
2018-06-11T06:40:45.518Z,982.48
2018-06-11T06:41:52.267Z,982.56
2018-06-11T06:42:58.994Z,982.58
2018-06-11T06:44:05.917Z,982.60
2018-06-11T06:45:12.873Z,982.64
2018-06-11T06:46:19.709Z,982.63
2018-06-11T06:47:26.363Z,982.64
2018-06-11T06:48:33.568Z,982.67
2018-06-11T06:49:40.572Z,982.71
2018-06-11T06:50:47.482Z,982.71
2018-06-11T06:51:54.258Z,982.74
2018-06-11T06:53:01.050Z,982.77
2018-06-11T06:54:07.847Z,982.82
2018-06-11T06:55:14.490Z,982.77
2018-06-11T06:56:21.266Z,982.84
2018-06-11T06:57:28.151Z,982.85
2018-06-11T06:58:34.889Z,982.88
2018-06-11T06:59:41.577Z,982.82
2018-06-11T07:00:48.427Z,982.96
2018-06-11T07:01:55.118Z,982.93
2018-06-11T07:03:01.946Z,982.96
2018-06-11T07:04:08.622Z,982.87
2018-06-11T07:05:15.754Z,982.90
2018-06-11T07:06:22.480Z,982.85
2018-06-11T07:07:29.199Z,982.85
2018-06-11T07:08:35.962Z,982.80
2018-06-11T07:09:42.653Z,982.92
2018-06-11T07:10:49.722Z,982.89
2018-06-11T07:11:56.466Z,982.88
2018-06-11T07:13:03.463Z,982.79
2018-06-11T07:14:10.137Z,982.81
2018-06-11T07:15:16.858Z,982.78
2018-06-11T07:16:23.648Z,982.82
2018-06-11T07:17:30.439Z,982.88
2018-06-11T07:18:37.311Z,982.92
2018-06-11T07:19:44.034Z,982.90
2018-06-11T07:20:50.811Z,982.81
2018-06-11T07:21:57.862Z,982.89
2018-06-11T07:23:04.718Z,982.85
2018-06-11T07:24:11.521Z,982.87
2018-06-11T07:25:18.355Z,982.85
2018-06-11T07:26:25.231Z,982.86
2018-06-11T07:27:32.154Z,982.83
2018-06-11T07:28:38.943Z,982.79
2018-06-11T07:29:45.879Z,982.82
2018-06-11T07:30:52.733Z,982.88
2018-06-11T07:31:59.402Z,982.80
2018-06-11T07:33:06.186Z,982.80
2018-06-11T07:34:13.146Z,982.78
2018-06-11T07:35:20.000Z,982.86
2018-06-11T07:36:26.964Z,982.85
2018-06-11T07:37:33.991Z,982.79
2018-06-11T07:38:40.819Z,982.78
2018-06-11T07:39:47.650Z,982.87
2018-06-11T07:40:54.981Z,982.79
2018-06-11T07:42:01.196Z,982.79
2018-06-11T07:43:07.934Z,982.78
2018-06-11T07:44:14.940Z,982.73
2018-06-11T07:45:21.775Z,982.79
2018-06-11T07:46:28.518Z,982.77
2018-06-11T07:47:35.243Z,982.75
2018-06-11T07:48:42.063Z,982.75
2018-06-11T07:49:48.839Z,982.83
2018-06-11T07:50:55.825Z,982.81
2018-06-11T07:52:02.571Z,982.82
2018-06-11T07:53:09.274Z,982.80
2018-06-11T07:54:16.411Z,982.84
2018-06-11T07:55:23.238Z,982.75
2018-06-11T07:56:29.982Z,982.75
2018-06-11T07:57:36.859Z,982.75
2018-06-11T07:58:43.599Z,982.76
2018-06-11T07:59:50.342Z,982.74
2018-06-11T08:00:57.241Z,982.68
2018-06-11T08:02:04.376Z,982.73
2018-06-11T08:03:10.962Z,982.72
2018-06-11T08:04:17.854Z,982.77
2018-06-11T08:05:24.603Z,982.70
2018-06-11T08:06:31.346Z,982.77
2018-06-11T08:07:38.256Z,982.64
2018-06-11T08:08:45.036Z,982.72
2018-06-11T08:09:51.698Z,982.67
2018-06-11T08:10:58.496Z,982.78
2018-06-11T08:12:05.286Z,982.70
2018-06-11T08:13:12.047Z,982.67
2018-06-11T08:14:19.166Z,982.70
2018-06-11T08:16:32.701Z,982.72
2018-06-11T08:17:40.311Z,982.67
2018-06-11T08:18:46.596Z,982.73
2018-06-11T08:19:53.563Z,982.72
2018-06-11T08:21:00.253Z,982.76
2018-06-11T08:22:07.236Z,982.77
2018-06-11T08:23:14.342Z,982.71
2018-06-11T08:24:21.198Z,982.77
2018-06-11T08:25:28.212Z,982.71
2018-06-11T08:26:34.865Z,982.77
2018-06-11T08:27:41.924Z,982.74
2018-06-11T08:28:48.695Z,982.70
2018-06-11T08:29:55.460Z,982.71
2018-06-11T08:31:03.654Z,982.71
2018-06-11T08:32:09.122Z,982.72
2018-06-11T08:33:16.691Z,982.74
2018-06-11T08:34:22.637Z,982.72
2018-06-11T08:35:29.543Z,982.70
2018-06-11T08:36:36.461Z,982.71
2018-06-11T08:37:43.431Z,982.81
2018-06-11T08:38:50.354Z,982.77
2018-06-11T08:39:57.149Z,982.72
2018-06-11T08:41:05.255Z,982.72
2018-06-11T08:42:11.239Z,982.64
2018-06-11T08:43:18.137Z,982.72
2018-06-11T08:44:24.893Z,982.73
2018-06-11T08:45:31.607Z,982.59
2018-06-11T08:46:38.481Z,982.70
2018-06-11T08:47:45.316Z,982.65
2018-06-11T08:48:52.065Z,982.70
2018-06-11T08:49:58.974Z,982.62
2018-06-11T08:51:05.883Z,982.72
2018-06-11T08:52:12.838Z,982.63
2018-06-11T08:53:19.595Z,982.64
2018-06-11T08:54:26.347Z,982.61
2018-06-11T08:55:33.154Z,982.60
2018-06-11T08:56:40.070Z,982.54
2018-06-11T08:57:47.040Z,982.63
2018-06-11T08:58:53.803Z,982.58
2018-06-11T09:00:00.895Z,982.62
2018-06-11T09:01:07.891Z,982.66
2018-06-11T09:02:14.782Z,982.68
2018-06-11T09:03:21.570Z,982.59
2018-06-11T09:04:28.634Z,982.63
2018-06-11T09:05:35.520Z,982.66
2018-06-11T09:06:42.206Z,982.67
2018-06-11T09:07:48.926Z,982.68
2018-06-11T09:08:56.075Z,982.59
2018-06-11T09:10:02.823Z,982.63
2018-06-11T09:11:09.753Z,982.65
2018-06-11T09:12:16.490Z,982.64
2018-06-11T09:13:23.475Z,982.70
2018-06-11T09:14:30.185Z,982.61
2018-06-11T09:15:37.026Z,982.65
2018-06-11T09:16:43.723Z,982.61
2018-06-11T09:17:50.846Z,982.65
2018-06-11T09:18:57.639Z,982.62
2018-06-11T09:20:06.473Z,982.59
2018-06-11T09:21:11.399Z,982.62
2018-06-11T09:22:18.154Z,982.59
2018-06-11T09:23:24.979Z,982.59
2018-06-11T09:24:31.907Z,982.59
2018-06-11T09:25:38.687Z,982.54
2018-06-11T09:26:45.471Z,982.55
2018-06-11T09:27:52.407Z,982.62
2018-06-11T09:28:59.199Z,982.59
2018-06-11T09:30:05.974Z,982.59
2018-06-11T09:31:12.783Z,982.68
2018-06-11T09:32:19.422Z,982.59
2018-06-11T09:33:26.658Z,982.57
2018-06-11T09:34:33.391Z,982.61
2018-06-11T09:35:40.174Z,982.62
2018-06-11T09:36:46.841Z,982.60
2018-06-11T09:37:53.726Z,982.58
2018-06-11T09:39:00.586Z,982.59
2018-06-11T09:40:07.461Z,982.61
2018-06-11T09:41:14.197Z,982.63
2018-06-11T09:42:21.290Z,982.63
2018-06-11T09:43:28.046Z,982.63
2018-06-11T09:44:34.943Z,982.58
2018-06-11T09:45:41.962Z,982.66
2018-06-11T09:46:51.129Z,982.56
2018-06-11T09:47:55.570Z,982.46
2018-06-11T09:49:05.553Z,982.55
2018-06-11T09:50:09.470Z,982.61
2018-06-11T09:51:16.319Z,982.58
2018-06-11T09:52:23.358Z,982.60
2018-06-11T09:53:30.080Z,982.57
2018-06-11T09:54:37.091Z,982.63
2018-06-11T09:55:43.575Z,982.51
2018-06-11T09:56:50.286Z,982.53
2018-06-11T09:57:57.295Z,982.52
2018-06-11T09:59:04.210Z,982.59
2018-06-11T10:00:11.079Z,982.58
2018-06-11T10:01:18.166Z,982.51
2018-06-11T10:02:25.095Z,982.57
2018-06-11T10:03:36.652Z,982.53
2018-06-11T10:04:38.905Z,982.60
2018-06-11T10:05:45.900Z,982.61
2018-06-11T10:06:52.859Z,982.56
2018-06-11T10:07:59.983Z,982.61
2018-06-11T10:09:06.941Z,982.59
2018-06-11T10:10:14.039Z,982.49
2018-06-11T10:11:20.998Z,982.59
2018-06-11T10:12:27.957Z,982.59
2018-06-11T10:13:36.509Z,982.50
2018-06-11T10:14:41.940Z,982.58
2018-06-11T10:15:52.433Z,982.61
2018-06-11T10:16:57.759Z,982.54
2018-06-11T10:18:02.695Z,982.57
2018-06-11T10:19:09.524Z,982.51
2018-06-11T10:20:16.450Z,982.55
2018-06-11T10:21:23.238Z,982.53
2018-06-11T10:22:29.965Z,982.55
2018-06-11T10:23:36.723Z,982.57
2018-06-11T10:24:43.976Z,982.58
2018-06-11T10:25:51.627Z,982.46
2018-06-11T10:26:58.026Z,982.50
2018-06-11T10:28:04.956Z,982.50
2018-06-11T10:29:16.012Z,982.47
2018-06-11T10:30:18.994Z,982.47
2018-06-11T10:31:25.914Z,982.54
2018-06-11T10:32:33.879Z,982.41
2018-06-11T10:33:41.741Z,982.41
2018-06-11T10:34:47.558Z,982.46
2018-06-11T10:35:53.449Z,982.40
2018-06-11T10:37:00.015Z,982.41
2018-06-11T10:38:07.626Z,982.46
2018-06-11T10:39:17.197Z,982.42
2018-06-11T10:41:29.567Z,982.42
2018-06-11T10:42:35.096Z,982.50
2018-06-11T10:44:49.416Z,982.45
2018-06-11T10:45:55.585Z,982.44
2018-06-11T10:47:02.927Z,982.36
2018-06-11T10:48:10.335Z,982.27
2018-06-11T10:49:16.361Z,982.27
2018-06-11T10:50:23.206Z,982.20
2018-06-11T10:51:30.924Z,982.30
2018-06-11T10:52:37.318Z,982.17
2018-06-11T10:53:45.276Z,982.25
2018-06-11T10:54:51.068Z,982.19
2018-06-11T10:55:58.119Z,982.20
2018-06-11T10:58:12.278Z,982.14
2018-06-11T10:59:22.907Z,982.16
2018-06-11T11:00:31.916Z,982.08
2018-06-11T11:01:33.437Z,982.12
2018-06-11T11:02:41.040Z,982.10
2018-06-11T11:03:47.105Z,982.08
2018-06-11T11:05:01.332Z,982.04
2018-06-11T11:06:00.461Z,982.11
2018-06-11T11:07:08.481Z,982.02
2018-06-11T11:08:14.287Z,982.03
2018-06-11T11:09:21.704Z,981.98
2018-06-11T11:10:28.314Z,982.12
2018-06-11T11:11:38.267Z,982.12
2018-06-11T11:13:49.194Z,981.94
2018-06-11T11:15:01.500Z,981.91
2018-06-11T11:20:10.216Z,981.96
2018-06-11T11:21:17.534Z,981.70
2018-06-11T11:22:24.259Z,981.69
2018-06-11T11:23:32.567Z,981.69
2018-06-11T11:24:37.928Z,981.76
2018-06-11T11:26:51.711Z,981.83
2018-06-11T11:27:58.626Z,981.83
2018-06-11T11:29:06.243Z,981.83
2018-06-11T11:30:12.494Z,981.89
2018-06-11T11:31:19.182Z,981.91
2018-06-11T11:32:25.915Z,981.93
2018-06-11T11:33:32.655Z,981.95
2018-06-11T11:34:39.538Z,981.99
2018-06-11T11:35:46.323Z,981.98
2018-06-11T11:36:53.951Z,981.99
2018-06-11T11:38:00.143Z,982.02
2018-06-11T11:39:06.867Z,982.02
2018-06-11T11:40:13.619Z,982.09
2018-06-11T11:41:20.317Z,982.05
2018-06-11T11:42:27.152Z,982.06
2018-06-11T11:43:33.891Z,982.05
2018-06-11T11:44:41.470Z,981.94
2018-06-11T11:45:48.506Z,982.06
2018-06-11T11:46:54.619Z,981.95
2018-06-11T11:48:01.534Z,981.96
2018-06-11T11:49:07.998Z,981.98
2018-06-11T11:51:21.764Z,981.84
2018-06-11T11:52:28.546Z,981.83
2018-06-11T11:53:35.469Z,981.78
2018-06-11T11:54:43.098Z,981.67
2018-06-11T11:55:50.224Z,981.62
2018-06-11T11:57:05.592Z,981.57
2018-06-11T11:58:03.806Z,981.52
2018-06-11T11:59:10.260Z,981.48
2018-06-11T12:00:17.244Z,981.50
2018-06-11T12:01:23.950Z,981.39
2018-06-11T12:02:30.886Z,981.50
2018-06-11T12:03:38.478Z,981.44
2018-06-11T12:04:44.334Z,981.50
2018-06-11T12:05:51.150Z,981.44
2018-06-11T12:06:58.122Z,981.46
2018-06-11T12:08:05.057Z,981.55
2018-06-11T12:09:11.884Z,981.53
2018-06-11T12:10:18.621Z,981.61
2018-06-11T12:11:25.385Z,981.61
2018-06-11T12:12:32.090Z,981.59
2018-06-11T12:13:38.854Z,981.55
2018-06-11T12:14:45.850Z,981.60
2018-06-11T12:15:52.582Z,981.65
2018-06-11T12:16:59.347Z,981.63
2018-06-11T12:18:06.219Z,981.55
2018-06-11T12:20:21.430Z,981.58
2018-06-11T12:21:26.855Z,981.64
2018-06-11T12:22:33.782Z,981.59
2018-06-11T12:23:40.685Z,981.60
2018-06-11T12:25:54.412Z,981.54
2018-06-11T12:27:01.190Z,981.53
2018-06-11T12:28:07.917Z,981.50
2018-06-11T12:30:49.807Z,981.43
2018-06-11T12:31:56.711Z,981.43
2018-06-11T12:33:03.471Z,981.60
2018-06-11T12:34:10.430Z,981.56
2018-06-11T12:35:17.225Z,981.62
2018-06-11T12:36:24.039Z,981.69
2018-06-11T12:37:30.767Z,981.65
2018-06-11T12:38:37.451Z,981.66
2018-06-11T12:39:44.370Z,981.67
2018-06-11T12:40:51.031Z,981.63
2018-06-11T12:41:57.783Z,981.58
2018-06-11T12:43:04.499Z,981.53
2018-06-11T12:44:11.231Z,981.58
2018-06-11T12:45:17.944Z,981.61
2018-06-11T12:46:24.658Z,981.57
2018-06-11T12:47:31.420Z,981.60
2018-06-11T12:48:38.112Z,981.64
2018-06-11T12:49:44.935Z,981.64
2018-06-11T12:50:51.752Z,981.63
2018-06-11T12:51:58.436Z,981.60
2018-06-11T12:53:05.459Z,981.58
2018-06-11T12:54:12.426Z,981.55
2018-06-11T12:55:19.391Z,981.50
2018-06-11T12:56:26.629Z,981.57
2018-06-11T12:57:32.952Z,981.52
2018-06-11T12:58:39.766Z,981.61
2018-06-11T12:59:46.494Z,981.56
2018-06-11T13:00:53.203Z,981.49
2018-06-11T13:01:59.917Z,981.51
2018-06-11T13:03:06.880Z,981.61
2018-06-11T13:04:13.799Z,981.63
2018-06-11T13:05:20.744Z,981.61
2018-06-11T13:06:27.417Z,981.60
2018-06-11T13:07:34.163Z,981.57
2018-06-11T13:08:40.872Z,981.56
2018-06-11T13:09:47.807Z,981.53
2018-06-11T13:10:54.578Z,981.52
2018-06-11T13:12:01.451Z,981.46
2018-06-11T13:13:08.385Z,981.43
2018-06-11T13:14:15.279Z,981.45
2018-06-11T13:15:22.078Z,981.40
2018-06-11T13:16:28.832Z,981.33
2018-06-11T13:17:35.651Z,981.32
2018-06-11T13:18:42.353Z,981.27
2018-06-11T13:19:49.218Z,981.40
2018-06-11T13:20:55.873Z,981.44
2018-06-11T13:22:02.791Z,981.44
2018-06-11T13:23:09.467Z,981.42
2018-06-11T13:24:16.172Z,981.44
2018-06-11T13:25:22.938Z,981.43
2018-06-11T13:26:29.694Z,981.40
2018-06-11T13:27:36.441Z,981.32
2018-06-11T13:28:43.318Z,981.34
2018-06-11T13:30:57.307Z,981.33
2018-06-11T13:32:04.266Z,981.34
2018-06-11T13:33:11.060Z,981.36
2018-06-11T13:34:17.974Z,981.31
2018-06-11T13:35:24.687Z,981.29
2018-06-11T13:36:31.642Z,981.28
2018-06-11T13:37:38.300Z,981.40
2018-06-11T13:38:45.165Z,981.33
2018-06-11T13:39:51.846Z,981.41
2018-06-11T13:40:58.696Z,981.42
2018-06-11T13:42:05.497Z,981.48
2018-06-11T13:43:12.240Z,981.50
2018-06-11T13:44:19.062Z,981.51
2018-06-11T13:45:25.935Z,981.47
2018-06-11T13:46:32.898Z,981.45
2018-06-11T13:47:39.771Z,981.43
2018-06-11T13:48:46.739Z,981.49
2018-06-11T13:49:53.543Z,981.40
2018-06-11T13:51:00.531Z,981.42
2018-06-11T13:52:07.415Z,981.38
2018-06-11T13:53:14.128Z,981.38
2018-06-11T13:54:22.422Z,981.38
2018-06-11T13:55:27.831Z,981.40
2018-06-11T13:56:34.618Z,981.42
2018-06-11T13:57:41.393Z,981.47
2018-06-11T13:58:48.513Z,981.43
2018-06-11T13:59:55.474Z,981.48
2018-06-11T14:01:02.263Z,981.52
2018-06-11T14:02:09.107Z,981.47
2018-06-11T14:03:15.747Z,981.49
2018-06-11T14:04:22.542Z,981.49
2018-06-11T14:05:29.235Z,981.54
2018-06-11T14:06:35.913Z,981.56
2018-06-11T14:07:42.650Z,981.50
2018-06-11T14:08:49.367Z,981.52
2018-06-11T14:09:56.134Z,981.60
2018-06-11T14:11:02.845Z,981.59